Flight Number: EUR3022 Duration: 11:00
Departure: Moscow Sheremetyevo (UUEE) at 08:00 Distance: 4386 Nm
Arrival: Indianapolis Intl Airport (KIND) at 19:00 Equipment: B777

Weather Information
Moscow / Sheremet'Ye , Russia (UUEE) 55-59N 037-30E Aug 17, 2018 - 05:00 PM EDT / 2018.08.17 2100 UTC
Wind: from the ENE (060 degrees) at 7 MPH (6 KT):0
Visibility: greater than 7 mile(s):0 Temperature: 57 F (14 C) Dew Point: 51 F (11 C) Relative Humidity: 82% Pressure (altimeter): 30.24 in. Hg (1024 hPa)
ob: UUEE 172100Z 06003MPS CAVOK 14/11 Q1024 R06R/CLRD62 NOSIG cycle: 21
Sunrise: 02:10 Sunset: 16:57 (UTC)

INDIANAPOLIS INTERNATIONAL AIRPORT , IN, United States (KIND) 39-43N 86-17W 242M Aug 17, 2018 - 05:08 PM EDT / 2018.08.17 2108 UTC
Wind: from the SW (220 degrees) at 12 MPH (10 KT):0
Visibility: 10 mile(s):0
Sky conditions: mostly cloudy Weather: light rain Precipitation last hour: A trace Temperature: 75.9 F (24.4 C) Dew Point: 71.1 F (21.7 C) Relative Humidity: 84% Pressure (altimeter): 29.96 in. Hg (1014 hPa)
ob: KIND 172108Z 22010KT 10SM -RA FEW015 BKN040 BKN130 24/22 A2996 RMK AO2 RAB07 P0000 T02440217 cycle: 21
Sunrise: 11:03 Sunset: 00:35 (UTC)

TAF:2018/08/17 20:12 TAF AMD KIND 172010Z 1720/1824 23010KT P6SM VCTS SCT020CB BKN050 TEMPO 1720/1723 2SM TSRA OVC020CB FM180100 VRB03KT P6SM BKN030 FM181000 VRB03KT 4SM BR BKN015 FM181300 VRB03KT 2SM BR BKN008 FM181500 VRB04KT 4SM BR BKN015 FM181600 VRB04KT P6SM BKN035 FM182100 02007KT P6SM SCT090

This route has never been flown.

Route map